Impacts TAF Board INFO
FOR SITUATIONAL AWARENESS. NOT TO BE USED FOR FLIGHT PLANNING PURPOSES.
IDs:

KSAN - San Diego Intl Arpt, CA, US

Issued at 1729 UTC 25 Feb 2017
Updated at 2045 UTC 25 Feb 2017
Potential Impact None Slight Moderate High
Time1951Z 25/21Z 25/22Z 25/23Z 26/00Z 26/01Z 26/02Z 26/03Z 26/04Z 26/05Z 26/06Z 26/07Z 26/08Z 26/09Z
Type OBS PRVL PRVL PRVL PRVL PRVL PRVL PRVL PRVL PRVL PRVL PRVL PRVL PRVL
VIS 10 >6 >6 >6 >6 >6 >6 >6 >6 >6 >6 >6 >6 >6
CIG -- 200 200 200 200 200 35 35 35 35 35 35 35 35
Cover SCT BKN BKN BKN BKN BKN BKN BKN BKN BKN BKN BKN BKN BKN
FltCat VFR VFR VFR VFR VFR VFR VFR VFR VFR VFR VFR VFR VFR VFR
WX -- -- -- -- -- -- -- -- -- -- -- -- -- --
WDir 290 280 280 280 280 280 270 270 270 270 270 270 270 270
WSpd 7 10 10 10 10 10 5 5 5 5 5 5 5 5
WGst -- -- -- -- -- -- -- -- -- -- -- -- -- --

Raw TAF
KSAN 251729Z 2518/2624 VRB06KT P6SM FEW200
  FM252000 28010KT P6SM FEW035 BKN200
  FM260200 27005KT P6SM SCT025 BKN035 BKN100
  FM261000 29005KT P6SM VCSH SCT025 BKN035
  FM261200 VRB05KT P6SM -SHRA BKN025 OVC035
  FM261800 18007KT P6SM VCSH BKN020 BKN035
  FM262200 18009KT P6SM VCSH SCT020 BKN035


Raw METAR
KSAN 251951Z 29007KT 10SM SCT200 16/04 A3012 RMK AO2 SLP199 T01610044
KSAN 251851Z 28006KT 10SM SCT200 16/03 A3014 RMK AO2 SLP207 T01560033
KSAN 251751Z 29003KT 10SM SCT200 15/02 A3015 RMK AO2 SLP209 T01500022 10150 20083 50003

METAR Board
Radar Display
Forecast Discussion

FOR SITUATIONAL AWARENESS. NOT TO BE USED FOR FLIGHT PLANNING PURPOSES.

Page loaded:  20:45 UTC  |   12:45 PM Pacific  |   01:45 PM Mountain  |   02:45 PM Central  |   03:45 PM Eastern

 

ADVISORIES

FORECASTS

FORECASTS

OBSERVATIONS

USER TOOLS

ABOUT US